sensor_id;sensor_type;location;lat;lon;timestamp;pressure;altitude;pressure_sealevel;temperature;humidity
3748;BME280;1889;50.058;8.688;2023-05-17T00:00:01;100799.82;;;13.87;49.00
3748;BME280;1889;50.058;8.688;2023-05-17T00:02:30;100807.36;;;13.14;50.63
3748;BME280;1889;50.058;8.688;2023-05-17T00:04:59;100803.34;;;13.43;50.06
3748;BME280;1889;50.058;8.688;2023-05-17T00:07:29;100805.55;;;13.43;50.40
3748;BME280;1889;50.058;8.688;2023-05-17T00:09:58;100811.24;;;13.68;49.81
3748;BME280;1889;50.058;8.688;2023-05-17T00:12:28;100806.31;;;13.24;50.63
3748;BME280;1889;50.058;8.688;2023-05-17T00:14:57;100808.02;;;13.28;50.65
3748;BME280;1889;50.058;8.688;2023-05-17T00:17:26;100809.69;;;13.56;50.30
3748;BME280;1889;50.058;8.688;2023-05-17T00:19:55;100811.29;;;13.65;50.03
3748;BME280;1889;50.058;8.688;2023-05-17T00:22:25;100810.97;;;13.59;50.16
3748;BME280;1889;50.058;8.688;2023-05-17T00:24:54;100816.11;;;13.67;49.96
3748;BME280;1889;50.058;8.688;2023-05-17T00:27:24;100816.68;;;13.60;50.15
3748;BME280;1889;50.058;8.688;2023-05-17T00:29:53;100817.43;;;13.67;50.00
3748;BME280;1889;50.058;8.688;2023-05-17T00:32:22;100818.58;;;13.54;50.26
3748;BME280;1889;50.058;8.688;2023-05-17T00:34:52;100818.47;;;13.58;50.30
3748;BME280;1889;50.058;8.688;2023-05-17T00:37:21;100813.37;;;13.48;50.83
3748;BME280;1889;50.058;8.688;2023-05-17T00:39:50;100818.09;;;13.54;50.56
3748;BME280;1889;50.058;8.688;2023-05-17T00:42:21;100815.73;;;13.63;50.40
3748;BME280;1889;50.058;8.688;2023-05-17T00:44:50;100819.52;;;13.50;50.89
3748;BME280;1889;50.058;8.688;2023-05-17T00:47:19;100821.77;;;13.22;51.37
3748;BME280;1889;50.058;8.688;2023-05-17T00:49:49;100830.06;;;13.27;51.40
3748;BME280;1889;50.058;8.688;2023-05-17T00:52:18;100830.10;;;13.24;51.59
3748;BME280;1889;50.058;8.688;2023-05-17T00:54:49;100830.74;;;12.83;52.74
3748;BME280;1889;50.058;8.688;2023-05-17T00:57:19;100825.52;;;13.07;52.20
3748;BME280;1889;50.058;8.688;2023-05-17T00:59:49;100823.53;;;12.94;52.70
3748;BME280;1889;50.058;8.688;2023-05-17T01:02:19;100821.64;;;13.03;52.37
3748;BME280;1889;50.058;8.688;2023-05-17T01:04:48;100824.56;;;13.13;52.30
3748;BME280;1889;50.058;8.688;2023-05-17T01:07:18;100820.05;;;13.21;52.27
3748;BME280;1889;50.058;8.688;2023-05-17T01:09:47;100830.17;;;12.91;52.60
3748;BME280;1889;50.058;8.688;2023-05-17T01:12:32;100827.72;;;12.49;53.94
3748;BME280;1889;50.058;8.688;2023-05-17T01:17:49;100823.25;;;12.56;54.08
3748;BME280;1889;50.058;8.688;2023-05-17T01:20:28;100830.28;;;12.85;53.44
3748;BME280;1889;50.058;8.688;2023-05-17T01:28:32;100828.60;;;13.07;53.15
3748;BME280;1889;50.058;8.688;2023-05-17T01:31:02;100824.70;;;13.30;52.40
3748;BME280;1889;50.058;8.688;2023-05-17T01:33:32;100830.41;;;13.31;52.30
3748;BME280;1889;50.058;8.688;2023-05-17T01:36:02;100834.36;;;13.33;52.34
3748;BME280;1889;50.058;8.688;2023-05-17T01:38:31;100839.78;;;13.25;52.50
3748;BME280;1889;50.058;8.688;2023-05-17T01:46:41;100834.69;;;13.38;52.35
3748;BME280;1889;50.058;8.688;2023-05-17T01:49:29;100841.53;;;13.26;52.30
3748;BME280;1889;50.058;8.688;2023-05-17T01:52:24;100845.41;;;13.31;52.23
3748;BME280;1889;50.058;8.688;2023-05-17T01:57:35;100846.45;;;13.46;51.73
3748;BME280;1889;50.058;8.688;2023-05-17T02:00:06;100837.17;;;13.48;51.56
3748;BME280;1889;50.058;8.688;2023-05-17T02:02:39;100843.77;;;13.49;51.71
3748;BME280;1889;50.058;8.688;2023-05-17T02:05:08;100845.52;;;13.50;51.76
3748;BME280;1889;50.058;8.688;2023-05-17T02:07:38;100842.77;;;13.55;51.65
3748;BME280;1889;50.058;8.688;2023-05-17T02:10:07;100846.00;;;13.47;51.83
3748;BME280;1889;50.058;8.688;2023-05-17T02:12:37;100856.96;;;12.67;54.47
3748;BME280;1889;50.058;8.688;2023-05-17T02:15:06;100862.00;;;12.54;55.00
3748;BME280;1889;50.058;8.688;2023-05-17T02:17:38;100864.64;;;12.84;54.01
3748;BME280;1889;50.058;8.688;2023-05-17T02:20:08;100869.79;;;12.93;53.83
3748;BME280;1889;50.058;8.688;2023-05-17T02:22:38;100864.90;;;12.97;53.77
3748;BME280;1889;50.058;8.688;2023-05-17T02:25:08;100867.86;;;13.04;53.65
3748;BME280;1889;50.058;8.688;2023-05-17T02:27:37;100865.53;;;13.13;53.85
3748;BME280;1889;50.058;8.688;2023-05-17T02:30:07;100872.05;;;13.20;53.68
3748;BME280;1889;50.058;8.688;2023-05-17T02:32:36;100872.47;;;13.21;53.51
3748;BME280;1889;50.058;8.688;2023-05-17T02:35:06;100868.61;;;13.12;53.71
3748;BME280;1889;50.058;8.688;2023-05-17T02:37:36;100869.53;;;13.10;53.73
3748;BME280;1889;50.058;8.688;2023-05-17T02:40:06;100872.98;;;13.15;53.64
3748;BME280;1889;50.058;8.688;2023-05-17T02:42:36;100873.53;;;13.07;53.64
3748;BME280;1889;50.058;8.688;2023-05-17T02:45:06;100878.16;;;12.92;53.85
3748;BME280;1889;50.058;8.688;2023-05-17T02:47:35;100876.72;;;12.72;54.48
3748;BME280;1889;50.058;8.688;2023-05-17T02:50:05;100879.30;;;12.75;54.38
3748;BME280;1889;50.058;8.688;2023-05-17T02:52:34;100884.03;;;12.51;55.01
3748;BME280;1889;50.058;8.688;2023-05-17T02:55:04;100889.19;;;12.60;54.73
3748;BME280;1889;50.058;8.688;2023-05-17T02:57:33;100886.12;;;12.59;54.91
3748;BME280;1889;50.058;8.688;2023-05-17T03:00:03;100888.20;;;12.68;54.79
3748;BME280;1889;50.058;8.688;2023-05-17T03:02:33;100884.98;;;12.47;55.17
3748;BME280;1889;50.058;8.688;2023-05-17T03:05:03;100891.16;;;12.45;55.09
3748;BME280;1889;50.058;8.688;2023-05-17T03:07:32;100898.00;;;12.25;55.83
3748;BME280;1889;50.058;8.688;2023-05-17T03:10:02;100895.02;;;12.16;56.12
3748;BME280;1889;50.058;8.688;2023-05-17T03:12:31;100893.25;;;12.18;56.02
3748;BME280;1889;50.058;8.688;2023-05-17T03:15:00;100893.77;;;12.12;56.26
3748;BME280;1889;50.058;8.688;2023-05-17T03:17:30;100900.11;;;11.96;56.91
3748;BME280;1889;50.058;8.688;2023-05-17T03:19:59;100899.55;;;12.07;56.41
3748;BME280;1889;50.058;8.688;2023-05-17T03:22:28;100901.71;;;12.09;56.35
3748;BME280;1889;50.058;8.688;2023-05-17T03:24:57;100902.92;;;12.18;56.07
3748;BME280;1889;50.058;8.688;2023-05-17T03:27:27;100913.03;;;12.20;56.24
3748;BME280;1889;50.058;8.688;2023-05-17T03:29:57;100910.58;;;12.03;56.60
3748;BME280;1889;50.058;8.688;2023-05-17T03:32:27;100919.34;;;12.07;56.47
3748;BME280;1889;50.058;8.688;2023-05-17T03:34:57;100918.30;;;11.79;57.39
3748;BME280;1889;50.058;8.688;2023-05-17T03:37:26;100917.72;;;11.92;57.07
3748;BME280;1889;50.058;8.688;2023-05-17T03:39:55;100922.09;;;11.95;56.91
3748;BME280;1889;50.058;8.688;2023-05-17T03:42:25;100931.39;;;11.90;57.41
3748;BME280;1889;50.058;8.688;2023-05-17T03:44:54;100927.02;;;11.86;57.68
3748;BME280;1889;50.058;8.688;2023-05-17T03:47:23;100930.17;;;11.79;57.92
3748;BME280;1889;50.058;8.688;2023-05-17T03:49:53;100928.03;;;11.68;58.17
3748;BME280;1889;50.058;8.688;2023-05-17T03:52:22;100926.48;;;11.96;57.14
3748;BME280;1889;50.058;8.688;2023-05-17T03:54:51;100927.28;;;12.04;56.86
3748;BME280;1889;50.058;8.688;2023-05-17T03:57:21;100930.78;;;12.07;56.92
3748;BME280;1889;50.058;8.688;2023-05-17T03:59:50;100929.84;;;12.10;56.80
3748;BME280;1889;50.058;8.688;2023-05-17T04:02:19;100931.13;;;12.14;56.76
3748;BME280;1889;50.058;8.688;2023-05-17T04:04:49;100930.17;;;11.79;57.86
3748;BME280;1889;50.058;8.688;2023-05-17T04:07:19;100929.50;;;12.01;57.19
3748;BME280;1889;50.058;8.688;2023-05-17T04:09:49;100936.50;;;12.07;57.21
3748;BME280;1889;50.058;8.688;2023-05-17T04:12:19;100931.06;;;12.19;57.33
3748;BME280;1889;50.058;8.688;2023-05-17T04:14:48;100930.38;;;12.02;57.83
3748;BME280;1889;50.058;8.688;2023-05-17T04:17:18;100939.66;;;11.44;59.79
3748;BME280;1889;50.058;8.688;2023-05-17T04:19:47;100937.88;;;11.51;59.64
3748;BME280;1889;50.058;8.688;2023-05-17T04:22:17;100939.52;;;11.61;59.24
3748;BME280;1889;50.058;8.688;2023-05-17T04:24:46;100939.96;;;11.62;59.26
3748;BME280;1889;50.058;8.688;2023-05-17T04:27:16;100940.38;;;11.66;59.21
3748;BME280;1889;50.058;8.688;2023-05-17T04:29:45;100940.14;;;11.92;58.53
3748;BME280;1889;50.058;8.688;2023-05-17T04:32:14;100933.02;;;12.00;58.38
3748;BME280;1889;50.058;8.688;2023-05-17T04:34:44;100940.41;;;12.08;58.22
3748;BME280;1889;50.058;8.688;2023-05-17T04:37:13;100936.06;;;12.06;58.36
3748;BME280;1889;50.058;8.688;2023-05-17T04:39:44;100949.36;;;11.94;58.85
3748;BME280;1889;50.058;8.688;2023-05-17T04:42:13;100948.75;;;11.61;59.86
3748;BME280;1889;50.058;8.688;2023-05-17T04:44:42;100957.08;;;11.67;59.92
3748;BME280;1889;50.058;8.688;2023-05-17T04:47:12;100958.92;;;11.54;60.61
3748;BME280;1889;50.058;8.688;2023-05-17T04:49:41;100954.39;;;11.71;60.11
3748;BME280;1889;50.058;8.688;2023-05-17T04:52:10;100961.81;;;11.79;59.95
3748;BME280;1889;50.058;8.688;2023-05-17T04:54:40;100970.02;;;11.94;59.50
3748;BME280;1889;50.058;8.688;2023-05-17T04:57:09;100976.74;;;11.83;60.35
3748;BME280;1889;50.058;8.688;2023-05-17T04:59:38;100977.59;;;11.84;60.44
3748;BME280;1889;50.058;8.688;2023-05-17T05:02:08;100978.64;;;12.13;59.67
3748;BME280;1889;50.058;8.688;2023-05-17T05:04:37;100978.45;;;12.31;59.33
3748;BME280;1889;50.058;8.688;2023-05-17T05:07:07;100979.69;;;12.39;59.20
3748;BME280;1889;50.058;8.688;2023-05-17T05:09:36;100980.67;;;12.29;59.48
3748;BME280;1889;50.058;8.688;2023-05-17T05:12:05;100981.71;;;12.53;59.14
3748;BME280;1889;50.058;8.688;2023-05-17T05:14:35;100977.56;;;12.68;58.80
3748;BME280;1889;50.058;8.688;2023-05-17T05:17:04;100977.00;;;12.78;58.53
3748;BME280;1889;50.058;8.688;2023-05-17T05:19:33;100975.77;;;12.72;58.63
3748;BME280;1889;50.058;8.688;2023-05-17T05:22:03;100987.36;;;12.93;58.21
3748;BME280;1889;50.058;8.688;2023-05-17T05:24:32;100988.56;;;13.02;57.76
3748;BME280;1889;50.058;8.688;2023-05-17T05:27:02;100991.91;;;13.16;57.06
3748;BME280;1889;50.058;8.688;2023-05-17T05:29:31;100992.13;;;13.31;56.77
3748;BME280;1889;50.058;8.688;2023-05-17T05:32:00;101001.65;;;13.44;56.76
3748;BME280;1889;50.058;8.688;2023-05-17T05:34:30;101004.07;;;13.58;56.46
3748;BME280;1889;50.058;8.688;2023-05-17T05:36:59;101009.70;;;13.63;56.33
3748;BME280;1889;50.058;8.688;2023-05-17T05:39:28;101016.70;;;13.67;56.18
3748;BME280;1889;50.058;8.688;2023-05-17T05:41:58;101015.87;;;13.64;56.25
3748;BME280;1889;50.058;8.688;2023-05-17T05:44:27;101014.53;;;13.65;56.02
3748;BME280;1889;50.058;8.688;2023-05-17T05:46:56;101014.69;;;13.26;55.57
3748;BME280;1889;50.058;8.688;2023-05-17T05:49:26;101019.47;;;12.97;55.86
3748;BME280;1889;50.058;8.688;2023-05-17T05:51:55;101023.83;;;13.34;55.94
3748;BME280;1889;50.058;8.688;2023-05-17T05:54:25;101019.03;;;13.60;55.59
3748;BME280;1889;50.058;8.688;2023-05-17T05:56:54;101017.72;;;13.59;55.61
3748;BME280;1889;50.058;8.688;2023-05-17T05:59:23;101019.69;;;13.73;55.33
3748;BME280;1889;50.058;8.688;2023-05-17T06:01:53;101021.15;;;13.92;54.21
3748;BME280;1889;50.058;8.688;2023-05-17T06:04:22;101024.73;;;13.88;54.34
3748;BME280;1889;50.058;8.688;2023-05-17T06:06:53;101034.87;;;13.89;54.45
3748;BME280;1889;50.058;8.688;2023-05-17T06:09:22;101035.05;;;14.03;54.40
3748;BME280;1889;50.058;8.688;2023-05-17T06:11:52;101041.47;;;14.16;54.38
3748;BME280;1889;50.058;8.688;2023-05-17T06:14:21;101035.57;;;14.25;53.98
3748;BME280;1889;50.058;8.688;2023-05-17T06:16:50;101035.91;;;14.05;54.44
3748;BME280;1889;50.058;8.688;2023-05-17T06:19:20;101039.30;;;14.37;53.78
3748;BME280;1889;50.058;8.688;2023-05-17T06:21:49;101038.45;;;14.35;53.22
3748;BME280;1889;50.058;8.688;2023-05-17T06:24:19;101042.80;;;14.42;53.13
3748;BME280;1889;50.058;8.688;2023-05-17T06:26:48;101047.94;;;14.25;53.55
3748;BME280;1889;50.058;8.688;2023-05-17T06:29:17;101054.16;;;13.70;54.28
3748;BME280;1889;50.058;8.688;2023-05-17T06:31:47;101059.63;;;13.86;53.79
3748;BME280;1889;50.058;8.688;2023-05-17T06:34:16;101059.52;;;13.92;53.74
3748;BME280;1889;50.058;8.688;2023-05-17T06:36:46;101060.91;;;13.88;53.73
3748;BME280;1889;50.058;8.688;2023-05-17T06:39:15;101058.37;;;14.08;53.28
3748;BME280;1889;50.058;8.688;2023-05-17T06:41:44;101066.63;;;13.89;53.59
3748;BME280;1889;50.058;8.688;2023-05-17T06:44:14;101068.66;;;14.27;53.03
3748;BME280;1889;50.058;8.688;2023-05-17T06:46:43;101069.56;;;14.51;52.44
3748;BME280;1889;50.058;8.688;2023-05-17T06:49:12;101069.31;;;14.12;52.52
3748;BME280;1889;50.058;8.688;2023-05-17T06:51:42;101075.59;;;13.79;53.72
3748;BME280;1889;50.058;8.688;2023-05-17T06:54:11;101066.22;;;14.13;52.76
3748;BME280;1889;50.058;8.688;2023-05-17T06:56:41;101072.86;;;14.11;53.31
3748;BME280;1889;50.058;8.688;2023-05-17T06:59:10;101068.17;;;14.27;52.83
3748;BME280;1889;50.058;8.688;2023-05-17T07:01:40;101075.02;;;14.15;52.76
3748;BME280;1889;50.058;8.688;2023-05-17T07:04:09;101071.94;;;14.14;53.33
3748;BME280;1889;50.058;8.688;2023-05-17T07:06:39;101071.02;;;14.17;52.98
3748;BME280;1889;50.058;8.688;2023-05-17T07:09:08;101078.31;;;14.28;52.76
3748;BME280;1889;50.058;8.688;2023-05-17T07:11:37;101070.77;;;14.57;51.99
3748;BME280;1889;50.058;8.688;2023-05-17T07:14:07;101074.94;;;14.69;51.19
3748;BME280;1889;50.058;8.688;2023-05-17T07:16:36;101078.73;;;14.56;50.98
3748;BME280;1889;50.058;8.688;2023-05-17T07:19:05;101087.22;;;14.24;51.44
3748;BME280;1889;50.058;8.688;2023-05-17T07:21:35;101086.31;;;13.99;51.15
3748;BME280;1889;50.058;8.688;2023-05-17T07:24:04;101087.50;;;14.34;51.30
3748;BME280;1889;50.058;8.688;2023-05-17T07:26:33;101091.69;;;14.71;51.19
3748;BME280;1889;50.058;8.688;2023-05-17T07:29:03;101091.14;;;14.76;50.42
3748;BME280;1889;50.058;8.688;2023-05-17T07:31:32;101081.81;;;14.79;50.51
3748;BME280;1889;50.058;8.688;2023-05-17T07:34:01;101083.20;;;15.19;49.68
3748;BME280;1889;50.058;8.688;2023-05-17T07:36:31;101080.92;;;15.01;49.22
3748;BME280;1889;50.058;8.688;2023-05-17T07:39:00;101082.49;;;15.11;48.97
3748;BME280;1889;50.058;8.688;2023-05-17T07:41:30;101074.67;;;15.05;49.31
3748;BME280;1889;50.058;8.688;2023-05-17T07:44:00;101073.22;;;14.90;49.73
3748;BME280;1889;50.058;8.688;2023-05-17T07:46:30;101068.95;;;15.44;49.01
3748;BME280;1889;50.058;8.688;2023-05-17T07:48:59;101066.44;;;15.58;48.61
3748;BME280;1889;50.058;8.688;2023-05-17T07:51:28;101064.93;;;15.66;46.68
3748;BME280;1889;50.058;8.688;2023-05-17T07:53:58;101068.98;;;16.00;46.81
3748;BME280;1889;50.058;8.688;2023-05-17T07:56:29;101074.72;;;15.43;45.48
3748;BME280;1889;50.058;8.688;2023-05-17T07:59:00;101069.23;;;15.89;45.72
3748;BME280;1889;50.058;8.688;2023-05-17T08:01:30;101073.87;;;16.17;45.17
3748;BME280;1889;50.058;8.688;2023-05-17T08:03:59;101070.06;;;15.74;44.76
3748;BME280;1889;50.058;8.688;2023-05-17T08:06:28;101072.73;;;15.53;44.62
3748;BME280;1889;50.058;8.688;2023-05-17T08:08:57;101076.69;;;14.70;45.57
3748;BME280;1889;50.058;8.688;2023-05-17T08:11:27;101082.49;;;15.11;46.19
3748;BME280;1889;50.058;8.688;2023-05-17T08:13:56;101081.64;;;15.09;46.18
3748;BME280;1889;50.058;8.688;2023-05-17T08:16:26;101079.02;;;14.86;46.13
3748;BME280;1889;50.058;8.688;2023-05-17T08:18:55;101086.76;;;14.26;46.80
3748;BME280;1889;50.058;8.688;2023-05-17T08:21:24;101084.86;;;14.07;47.39
3748;BME280;1889;50.058;8.688;2023-05-17T08:23:53;101080.53;;;14.54;47.47
3748;BME280;1889;50.058;8.688;2023-05-17T08:26:23;101074.14;;;14.65;47.26
3748;BME280;1889;50.058;8.688;2023-05-17T08:28:52;101071.81;;;14.71;47.11
3748;BME280;1889;50.058;8.688;2023-05-17T08:31:21;101076.92;;;14.59;47.00
3748;BME280;1889;50.058;8.688;2023-05-17T08:33:51;101082.45;;;13.93;48.66
3748;BME280;1889;50.058;8.688;2023-05-17T08:36:20;101080.16;;;14.24;48.57
3748;BME280;1889;50.058;8.688;2023-05-17T08:38:49;101079.91;;;14.63;48.19
3748;BME280;1889;50.058;8.688;2023-05-17T08:41:19;101079.26;;;14.97;47.83
3748;BME280;1889;50.058;8.688;2023-05-17T08:43:49;101072.09;;;14.57;48.07
3748;BME280;1889;50.058;8.688;2023-05-17T08:46:19;101077.69;;;14.86;48.04
3748;BME280;1889;50.058;8.688;2023-05-17T08:48:52;101079.02;;;14.64;47.55
3748;BME280;1889;50.058;8.688;2023-05-17T08:51:24;101072.29;;;14.69;47.24
3748;BME280;1889;50.058;8.688;2023-05-17T08:53:54;101073.23;;;15.09;47.68
3748;BME280;1889;50.058;8.688;2023-05-17T08:56:25;101068.81;;;15.50;46.81
3748;BME280;1889;50.058;8.688;2023-05-17T08:58:56;101078.55;;;15.30;46.84
3748;BME280;1889;50.058;8.688;2023-05-17T09:01:26;101076.55;;;15.62;47.45
3748;BME280;1889;50.058;8.688;2023-05-17T09:03:57;101076.55;;;15.62;47.45
3748;BME280;1889;50.058;8.688;2023-05-17T09:06:27;101071.80;;;15.94;46.19
3748;BME280;1889;50.058;8.688;2023-05-17T09:08:58;101060.89;;;15.69;46.20
3748;BME280;1889;50.058;8.688;2023-05-17T09:11:30;101064.39;;;15.71;46.21
3748;BME280;1889;50.058;8.688;2023-05-17T09:14:04;101063.83;;;15.94;44.73
3748;BME280;1889;50.058;8.688;2023-05-17T09:16:34;101063.83;;;15.94;44.73
3748;BME280;1889;50.058;8.688;2023-05-17T09:19:05;101068.33;;;15.90;44.75
3748;BME280;1889;50.058;8.688;2023-05-17T09:21:36;101069.77;;;15.47;45.77
3748;BME280;1889;50.058;8.688;2023-05-17T09:24:06;101069.77;;;15.47;45.77
3748;BME280;1889;50.058;8.688;2023-05-17T09:26:43;101071.17;;;15.83;45.15
3748;BME280;1889;50.058;8.688;2023-05-17T09:29:15;101073.70;;;15.49;43.78
3748;BME280;1889;50.058;8.688;2023-05-17T09:31:44;101070.20;;;15.48;43.51
3748;BME280;1889;50.058;8.688;2023-05-17T09:34:17;101071.75;;;15.78;43.65
3748;BME280;1889;50.058;8.688;2023-05-17T09:36:46;101066.53;;;15.55;41.97
3748;BME280;1889;50.058;8.688;2023-05-17T09:39:15;101076.33;;;15.31;42.24
3748;BME280;1889;50.058;8.688;2023-05-17T09:41:45;101071.63;;;15.64;41.74
3748;BME280;1889;50.058;8.688;2023-05-17T09:44:17;101071.63;;;15.64;41.74
3748;BME280;1889;50.058;8.688;2023-05-17T09:46:47;101067.81;;;16.12;41.74
3748;BME280;1889;50.058;8.688;2023-05-17T09:49:17;101065.45;;;15.99;42.13
3748;BME280;1889;50.058;8.688;2023-05-17T09:51:47;101065.51;;;16.32;41.93
3748;BME280;1889;50.058;8.688;2023-05-17T09:54:17;101065.51;;;16.32;41.93
3748;BME280;1889;50.058;8.688;2023-05-17T09:56:53;101068.44;;;16.05;42.37
3748;BME280;1889;50.058;8.688;2023-05-17T09:59:24;101063.76;;;16.31;41.88
3748;BME280;1889;50.058;8.688;2023-05-17T10:01:57;101063.76;;;16.31;41.88
3748;BME280;1889;50.058;8.688;2023-05-17T10:04:27;101044.43;;;17.20;41.57
3748;BME280;1889;50.058;8.688;2023-05-17T10:06:59;101057.81;;;16.71;40.66
3748;BME280;1889;50.058;8.688;2023-05-17T10:09:29;101057.54;;;16.66;40.40
3748;BME280;1889;50.058;8.688;2023-05-17T10:12:02;101056.84;;;16.58;39.72
3748;BME280;1889;50.058;8.688;2023-05-17T10:14:34;101053.61;;;16.79;40.03
3748;BME280;1889;50.058;8.688;2023-05-17T10:17:04;101045.30;;;17.21;39.00
3748;BME280;1889;50.058;8.688;2023-05-17T10:19:35;101045.30;;;17.21;39.00
3748;BME280;1889;50.058;8.688;2023-05-17T10:22:05;101052.12;;;17.73;38.11
3748;BME280;1889;50.058;8.688;2023-05-17T10:24:35;101049.99;;;17.42;38.53
3748;BME280;1889;50.058;8.688;2023-05-17T10:27:06;101052.84;;;17.65;38.71
3748;BME280;1889;50.058;8.688;2023-05-17T10:29:37;101052.84;;;17.65;38.71
3748;BME280;1889;50.058;8.688;2023-05-17T10:32:07;101049.08;;;17.43;38.73
3748;BME280;1889;50.058;8.688;2023-05-17T10:34:38;101047.73;;;17.13;38.95
3748;BME280;1889;50.058;8.688;2023-05-17T10:37:09;101039.80;;;17.41;38.38
3748;BME280;1889;50.058;8.688;2023-05-17T10:39:40;101041.53;;;17.28;39.49
3748;BME280;1889;50.058;8.688;2023-05-17T10:42:12;101042.57;;;17.09;39.17
3748;BME280;1889;50.058;8.688;2023-05-17T10:44:43;101039.68;;;17.16;40.33
3748;BME280;1889;50.058;8.688;2023-05-17T10:47:13;101044.35;;;16.94;40.56
3748;BME280;1889;50.058;8.688;2023-05-17T10:49:43;101039.84;;;17.40;40.26
3748;BME280;1889;50.058;8.688;2023-05-17T10:52:20;101045.57;;;16.97;39.49
3748;BME280;1889;50.058;8.688;2023-05-17T10:54:51;101048.20;;;16.33;40.09
3748;BME280;1889;50.058;8.688;2023-05-17T10:57:31;101038.28;;;17.03;39.23
3748;BME280;1889;50.058;8.688;2023-05-17T10:59:59;101044.30;;;17.39;39.67
3748;BME280;1889;50.058;8.688;2023-05-17T11:02:30;101044.39;;;17.51;39.74
3748;BME280;1889;50.058;8.688;2023-05-17T11:04:59;101042.85;;;17.85;38.90
3748;BME280;1889;50.058;8.688;2023-05-17T11:07:30;101043.93;;;17.66;39.34
3748;BME280;1889;50.058;8.688;2023-05-17T11:10:03;101043.43;;;17.81;39.16
3748;BME280;1889;50.058;8.688;2023-05-17T11:12:38;101038.44;;;17.84;38.97
3748;BME280;1889;50.058;8.688;2023-05-17T11:15:14;101034.30;;;18.02;39.24
3748;BME280;1889;50.058;8.688;2023-05-17T11:23:03;101031.86;;;17.40;39.72
3748;BME280;1889;50.058;8.688;2023-05-17T11:25:36;101031.23;;;17.17;40.54
3748;BME280;1889;50.058;8.688;2023-05-17T11:28:16;101030.70;;;17.48;40.59
3748;BME280;1889;50.058;8.688;2023-05-17T11:30:41;101032.33;;;17.52;39.78
3748;BME280;1889;50.058;8.688;2023-05-17T11:33:12;101024.99;;;18.15;39.46
3748;BME280;1889;50.058;8.688;2023-05-17T11:35:41;101026.80;;;18.39;38.72
3748;BME280;1889;50.058;8.688;2023-05-17T11:38:19;101029.73;;;18.18;39.10
3748;BME280;1889;50.058;8.688;2023-05-17T11:40:55;101035.72;;;17.30;38.13
3748;BME280;1889;50.058;8.688;2023-05-17T11:43:25;101032.34;;;17.10;38.43
3748;BME280;1889;50.058;8.688;2023-05-17T11:45:57;101032.75;;;17.68;39.69
3748;BME280;1889;50.058;8.688;2023-05-17T11:48:31;101031.33;;;18.11;39.50
3748;BME280;1889;50.058;8.688;2023-05-17T11:51:01;101027.04;;;18.45;39.53
3748;BME280;1889;50.058;8.688;2023-05-17T11:53:31;101027.04;;;18.45;39.53
3748;BME280;1889;50.058;8.688;2023-05-17T11:56:02;101031.50;;;18.06;37.57
3748;BME280;1889;50.058;8.688;2023-05-17T11:58:34;101032.05;;;18.41;37.37
3748;BME280;1889;50.058;8.688;2023-05-17T12:01:03;101032.05;;;18.41;37.37
3748;BME280;1889;50.058;8.688;2023-05-17T12:03:33;101019.93;;;18.70;37.06
3748;BME280;1889;50.058;8.688;2023-05-17T12:08:38;101014.19;;;19.27;35.00
3748;BME280;1889;50.058;8.688;2023-05-17T12:11:10;101014.19;;;19.27;35.00
3748;BME280;1889;50.058;8.688;2023-05-17T12:13:40;101015.81;;;18.48;37.05
3748;BME280;1889;50.058;8.688;2023-05-17T12:16:12;101024.09;;;18.52;35.32
3748;BME280;1889;50.058;8.688;2023-05-17T12:18:43;101024.09;;;18.52;35.32
3748;BME280;1889;50.058;8.688;2023-05-17T12:21:14;101018.47;;;18.61;35.79
3748;BME280;1889;50.058;8.688;2023-05-17T12:23:45;101017.47;;;18.39;35.44
3748;BME280;1889;50.058;8.688;2023-05-17T12:26:19;101013.45;;;18.89;36.10
3748;BME280;1889;50.058;8.688;2023-05-17T12:28:58;101013.28;;;19.05;36.07
3748;BME280;1889;50.058;8.688;2023-05-17T12:31:36;101013.28;;;19.05;36.07
3748;BME280;1889;50.058;8.688;2023-05-17T12:34:07;101002.84;;;19.77;34.15
3748;BME280;1889;50.058;8.688;2023-05-17T12:36:39;101008.62;;;20.09;34.21
3748;BME280;1889;50.058;8.688;2023-05-17T12:39:13;101011.78;;;19.87;34.02
3748;BME280;1889;50.058;8.688;2023-05-17T12:41:44;101009.89;;;19.68;33.75
3748;BME280;1889;50.058;8.688;2023-05-17T12:44:13;100998.92;;;19.86;34.17
3748;BME280;1889;50.058;8.688;2023-05-17T12:46:43;101002.78;;;19.12;33.49
3748;BME280;1889;50.058;8.688;2023-05-17T12:49:36;101000.48;;;19.47;33.33
3748;BME280;1889;50.058;8.688;2023-05-17T12:52:03;101004.26;;;19.86;34.17
3748;BME280;1889;50.058;8.688;2023-05-17T12:54:35;101002.05;;;20.48;32.81
3748;BME280;1889;50.058;8.688;2023-05-17T12:57:12;100996.75;;;20.85;33.07
3748;BME280;1889;50.058;8.688;2023-05-17T12:59:54;100995.66;;;21.00;31.60
3748;BME280;1889;50.058;8.688;2023-05-17T13:02:23;101001.41;;;20.62;31.39
3748;BME280;1889;50.058;8.688;2023-05-17T13:04:52;100998.27;;;20.32;31.82
3748;BME280;1889;50.058;8.688;2023-05-17T13:07:22;101006.30;;;20.52;32.28
3748;BME280;1889;50.058;8.688;2023-05-17T13:09:51;100995.32;;;20.07;31.30
3748;BME280;1889;50.058;8.688;2023-05-17T13:12:22;100999.93;;;19.62;31.85
3748;BME280;1889;50.058;8.688;2023-05-17T13:14:52;101001.12;;;19.65;31.73
3748;BME280;1889;50.058;8.688;2023-05-17T13:17:34;101002.87;;;19.54;32.40
3748;BME280;1889;50.058;8.688;2023-05-17T13:20:04;100994.96;;;19.63;32.35
3748;BME280;1889;50.058;8.688;2023-05-17T13:22:39;101001.46;;;20.19;31.91
3748;BME280;1889;50.058;8.688;2023-05-17T13:25:05;101001.73;;;19.71;31.09
3748;BME280;1889;50.058;8.688;2023-05-17T13:27:35;100990.77;;;19.46;32.11
3748;BME280;1889;50.058;8.688;2023-05-17T13:30:04;100978.83;;;20.18;31.98
3748;BME280;1889;50.058;8.688;2023-05-17T13:32:33;100988.31;;;19.73;31.40
3748;BME280;1889;50.058;8.688;2023-05-17T13:35:03;100986.70;;;20.01;31.49
3748;BME280;1889;50.058;8.688;2023-05-17T13:37:32;100988.77;;;19.94;31.26
3748;BME280;1889;50.058;8.688;2023-05-17T13:40:02;100986.49;;;20.05;31.42
3748;BME280;1889;50.058;8.688;2023-05-17T13:42:31;100989.22;;;19.84;31.46
3748;BME280;1889;50.058;8.688;2023-05-17T13:45:00;100976.98;;;19.88;31.56
3748;BME280;1889;50.058;8.688;2023-05-17T13:47:29;100982.89;;;20.06;31.81
3748;BME280;1889;50.058;8.688;2023-05-17T13:49:59;100981.58;;;20.47;31.58